Time;durP1;ratioP1;P1;durP2;ratioP2;P2;SDS_P1;SDS_P2;PMS_P1;PMS_P2;Temp;Humidity;BMP_temperature;BMP_pressure;BME280_temperature;BME280_humidity;BME280_pressure;Samples;Min_cycle;Max_cycle;Signal;HPM_P1;HPM_P2
2021/03/24 00:01:00;;;;;;;4.03;2.90;;;;;;;8.98;35.18;101095.84;4989185;28;20042;-69
2021/03/24 00:03:27;;;;;;;5.05;2.72;;;;;;;8.92;35.26;101096.03;4986078;28;20397;-68
2021/03/24 00:05:54;;;;;;;6.55;3.00;;;;;;;8.93;35.66;101108.97;4993450;28;20436;-68
2021/03/24 00:08:22;;;;;;;4.03;2.67;;;;;;;8.86;36.10;101104.88;4992255;28;20133;-68
2021/03/24 00:10:50;;;;;;;3.53;2.45;;;;;;;8.93;35.84;101100.34;4983082;28;20127;-67
2021/03/24 00:13:17;;;;;;;3.88;2.65;;;;;;;8.86;35.99;101098.81;4988420;28;20049;-67
2021/03/24 00:15:44;;;;;;;4.15;3.20;;;;;;;8.98;36.01;101100.19;4991580;28;20104;-67
2021/03/24 00:18:11;;;;;;;4.07;2.33;;;;;;;8.81;36.72;101108.50;5021173;22;20099;-63
2021/03/24 00:20:40;;;;;;;4.00;2.80;;;;;;;8.75;36.97;101109.53;5021579;28;20395;-64
2021/03/24 00:23:08;;;;;;;4.03;2.90;;;;;;;8.72;37.02;101107.00;5023626;28;20550;-63
2021/03/24 00:25:35;;;;;;;5.00;4.03;;;;;;;8.68;37.28;101114.94;5022925;28;20074;-63
2021/03/24 00:28:03;;;;;;;5.60;3.10;;;;;;;8.67;37.35;101108.88;5027563;28;20499;-63
2021/03/24 00:30:37;;;;;;;5.45;3.28;;;;;;;8.63;37.90;101108.13;5022166;28;20041;-63
2021/03/24 00:33:09;;;;;;;6.28;3.75;;;;;;;8.57;37.60;101104.84;5021354;28;20052;-63
2021/03/24 00:35:36;;;;;;;4.90;2.90;;;;;;;8.48;38.21;101107.72;5019875;28;20046;-64
2021/03/24 00:38:03;;;;;;;5.85;4.55;;;;;;;8.49;38.29;101105.06;5026022;28;20514;-63
2021/03/24 00:40:36;;;;;;;3.38;2.85;;;;;;;8.35;38.47;101113.19;5024856;28;20069;-63
2021/03/24 00:43:04;;;;;;;5.88;4.13;;;;;;;8.25;38.64;101111.72;5016006;28;20044;-64
2021/03/24 00:45:33;;;;;;;5.82;2.92;;;;;;;8.34;38.52;101108.03;5021679;28;20041;-64
2021/03/24 00:48:00;;;;;;;7.38;3.40;;;;;;;8.24;38.65;101103.97;5021127;28;20133;-66
2021/03/24 00:50:29;;;;;;;4.97;3.00;;;;;;;8.15;39.21;101099.91;5022830;28;20034;-64
2021/03/24 00:52:55;;;;;;;4.05;3.00;;;;;;;8.27;38.77;101103.91;5019512;28;20070;-66
2021/03/24 00:55:22;;;;;;;7.22;3.63;;;;;;;8.25;39.04;101100.50;5018022;28;20049;-64
2021/03/24 00:57:48;;;;;;;6.18;3.47;;;;;;;8.30;38.89;101094.28;5025285;28;20111;-64
2021/03/24 01:00:22;;;;;;;6.72;3.95;;;;;;;8.19;38.89;101100.66;5027185;28;20435;-64
2021/03/24 01:02:49;;;;;;;7.30;4.13;;;;;;;8.20;38.83;101091.97;5023958;28;20053;-66
2021/03/24 01:05:19;;;;;;;5.82;3.75;;;;;;;8.27;39.00;101096.97;5018622;28;20037;-64
2021/03/24 01:07:46;;;;;;;9.30;3.55;;;;;;;8.25;39.13;101093.53;5024469;28;20045;-64
2021/03/24 01:10:23;;;;;;;5.85;4.25;;;;;;;8.24;39.03;101098.78;5022681;28;20045;-64
2021/03/24 01:12:50;;;;;;;6.80;3.40;;;;;;;8.17;39.08;101095.50;5023171;28;20088;-64
2021/03/24 01:15:17;;;;;;;5.65;4.32;;;;;;;8.24;39.13;101096.19;5026409;28;20583;-64
2021/03/24 01:17:43;;;;;;;9.23;4.93;;;;;;;8.31;38.74;101100.31;5026006;28;20049;-66
2021/03/24 01:20:11;;;;;;;8.15;5.85;;;;;;;8.34;39.09;101101.09;5017054;28;20041;-67
2021/03/24 01:22:53;;;;;;;9.55;6.20;;;;;;;8.29;38.97;101105.56;5023310;28;20055;-66
2021/03/24 01:25:20;;;;;;;7.32;5.63;;;;;;;8.25;38.73;101103.94;5021937;28;20096;-66
2021/03/24 01:27:47;;;;;;;8.93;5.78;;;;;;;8.23;38.78;101099.69;5015398;28;20050;-66
2021/03/24 01:30:16;;;;;;;8.57;6.35;;;;;;;8.28;38.82;101098.66;5020873;28;20037;-66
2021/03/24 01:32:43;;;;;;;10.48;6.70;;;;;;;8.33;38.52;101102.00;5022334;28;20037;-66
2021/03/24 01:35:10;;;;;;;6.85;3.63;;;;;;;8.49;37.76;101102.47;5018048;28;20231;-66
2021/03/24 01:37:40;;;;;;;6.85;4.43;;;;;;;8.50;38.11;101093.75;5022493;28;20518;-66
2021/03/24 01:40:09;;;;;;;7.55;5.35;;;;;;;8.50;38.21;101103.31;5020482;28;20041;-67
2021/03/24 01:42:36;;;;;;;7.75;4.60;;;;;;;8.40;38.77;101106.16;5020588;28;20042;-67
2021/03/24 01:45:05;;;;;;;7.88;3.47;;;;;;;8.50;37.94;101109.34;5016603;28;22975;-67
2021/03/24 01:47:32;;;;;;;7.85;4.38;;;;;;;8.40;38.75;101110.50;5015471;28;20156;-67
2021/03/24 01:50:00;;;;;;;4.72;3.55;;;;;;;8.32;39.63;101105.50;5024207;28;20038;-67
2021/03/24 01:52:26;;;;;;;4.70;3.20;;;;;;;8.33;38.81;101107.19;5019926;28;20128;-67
2021/03/24 01:54:53;;;;;;;5.10;3.47;;;;;;;8.44;37.98;101111.28;5010292;28;20042;-67
2021/03/24 01:57:23;;;;;;;6.40;3.72;;;;;;;8.56;38.79;101110.94;5018903;28;20546;-67
2021/03/24 01:59:53;;;;;;;6.90;3.70;;;;;;;8.40;39.37;101100.97;5014672;28;20125;-67
2021/03/24 02:02:31;;;;;;;5.72;4.25;;;;;;;8.32;39.24;101105.50;5020174;28;20038;-67
2021/03/24 02:04:59;;;;;;;4.22;2.88;;;;;;;8.05;39.25;101098.44;5020965;28;20046;-67
2021/03/24 02:07:34;;;;;;;4.63;3.40;;;;;;;8.17;39.28;101105.91;5021558;28;20147;-67
2021/03/24 02:10:32;;;;;;;3.53;2.70;;;;;;;8.25;39.11;101093.53;5016551;28;20044;-66
2021/03/24 02:13:13;;;;;;;5.88;2.90;;;;;;;8.42;38.21;101089.69;5000368;28;20135;-67
2021/03/24 02:15:44;;;;;;;5.65;2.75;;;;;;;8.33;38.69;101099.41;5015492;28;20125;-66
2021/03/24 02:18:14;;;;;;;9.13;3.03;;;;;;;8.33;38.18;101094.22;5020445;28;20107;-67
2021/03/24 02:20:58;;;;;;;3.92;3.00;;;;;;;8.34;38.18;101095.91;5021640;28;20088;-66
2021/03/24 02:23:41;;;;;;;4.90;3.10;;;;;;;8.53;37.50;101085.91;5014089;28;20130;-66
2021/03/24 02:26:25;;;;;;;3.67;3.33;;;;;;;8.36;38.59;101094.16;5022823;28;20399;-67
2021/03/24 02:28:55;;;;;;;4.68;3.80;;;;;;;8.08;39.72;101081.00;5014492;28;20088;-67
2021/03/24 02:31:25;;;;;;;4.55;2.78;;;;;;;8.06;39.78;101090.59;5015498;28;20125;-66
2021/03/24 02:33:54;;;;;;;8.25;3.53;;;;;;;8.10;40.13;101088.78;5014900;28;20092;-67
2021/03/24 02:36:23;;;;;;;3.28;2.42;;;;;;;8.01;39.91;101083.81;5019828;28;20149;-67
2021/03/24 02:38:54;;;;;;;3.72;2.70;;;;;;;7.91;40.21;101079.75;5018968;28;20116;-67
2021/03/24 02:41:21;;;;;;;3.42;2.45;;;;;;;7.86;40.60;101083.31;5024539;28;20049;-67
2021/03/24 02:43:48;;;;;;;3.65;2.63;;;;;;;7.80;41.13;101083.47;5017231;28;20480;-67
2021/03/24 02:46:15;;;;;;;4.43;2.65;;;;;;;7.81;40.99;101077.38;5017640;28;20041;-67
2021/03/24 02:48:43;;;;;;;7.30;2.83;;;;;;;7.86;40.66;101085.91;5012595;28;20038;-67
2021/03/24 02:51:21;;;;;;;3.22;2.38;;;;;;;7.87;39.92;101085.00;5015169;28;20533;-67
2021/03/24 02:54:05;;;;;;;5.30;2.75;;;;;;;7.88;40.41;101085.88;5018206;28;20044;-67
2021/03/24 02:56:31;;;;;;;7.05;3.13;;;;;;;7.95;40.66;101089.19;5023102;28;20038;-66
2021/03/24 02:58:58;;;;;;;2.72;2.30;;;;;;;8.02;39.86;101088.97;5012029;28;20641;-66
2021/03/24 03:01:28;;;;;;;4.05;3.13;;;;;;;8.01;40.30;101089.03;5019861;28;20126;-67
2021/03/24 03:04:23;;;;;;;5.82;2.95;;;;;;;7.94;39.80;101085.75;5019562;28;20048;-67
2021/03/24 03:06:53;;;;;;;3.63;2.70;;;;;;;7.80;40.04;101080.88;5022128;28;20069;-67
2021/03/24 03:09:46;;;;;;;5.78;2.63;;;;;;;7.93;40.37;101081.41;5017843;28;20069;-67
2021/03/24 03:12:31;;;;;;;3.35;2.80;;;;;;;7.91;40.81;101079.75;5019175;28;20035;-66
2021/03/24 03:15:08;;;;;;;6.05;2.90;;;;;;;7.84;40.63;101079.91;5016313;28;20566;-66
2021/03/24 03:17:40;;;;;;;5.22;2.50;;;;;;;7.92;40.54;101079.72;5021572;28;20555;-66
2021/03/24 03:20:33;;;;;;;4.28;3.00;;;;;;;7.87;40.59;101082.41;5019238;28;20152;-66
2021/03/24 03:23:06;;;;;;;4.60;3.13;;;;;;;7.81;41.10;101079.13;5018840;28;20053;-66
2021/03/24 03:25:37;;;;;;;5.68;2.65;;;;;;;7.77;40.99;101078.34;5015185;28;20068;-66
2021/03/24 03:28:13;;;;;;;4.72;2.30;;;;;;;7.80;40.30;101082.63;5015033;28;20076;-66
2021/03/24 03:30:41;;;;;;;5.68;2.58;;;;;;;7.67;40.35;101076.91;5023018;28;20033;-66
2021/03/24 03:33:13;;;;;;;5.53;3.00;;;;;;;7.72;40.19;101077.59;5018770;28;20048;-65
2021/03/24 03:35:40;;;;;;;5.32;3.95;;;;;;;7.69;40.16;101082.91;5023815;28;20479;-65
2021/03/24 03:38:14;;;;;;;6.28;2.92;;;;;;;7.79;40.28;101079.19;5023321;28;20587;-66
2021/03/24 03:40:43;;;;;;;3.17;2.70;;;;;;;7.78;39.71;101082.69;5015861;28;20049;-66
2021/03/24 03:43:13;;;;;;;2.75;2.30;;;;;;;7.83;39.58;101091.19;5017197;28;20124;-65
2021/03/24 03:45:42;;;;;;;4.70;2.97;;;;;;;7.76;39.84;101089.63;5022866;28;20041;-66
2021/03/24 03:48:12;;;;;;;6.72;3.22;;;;;;;7.83;40.05;101082.56;5017713;28;20042;-65
2021/03/24 03:50:40;;;;;;;6.43;3.45;;;;;;;7.80;40.40;101088.66;5018993;28;20049;-66
2021/03/24 03:53:20;;;;;;;4.38;2.92;;;;;;;7.74;40.96;101086.22;5012273;28;20038;-66
2021/03/24 03:56:14;;;;;;;5.65;3.03;;;;;;;7.68;40.64;101088.97;5020358;28;20072;-66
2021/03/24 03:58:43;;;;;;;5.20;2.80;;;;;;;7.66;41.21;101095.94;5016544;28;20065;-67
2021/03/24 04:01:09;;;;;;;3.50;2.85;;;;;;;7.69;41.23;101090.69;5023154;28;20042;-67
2021/03/24 04:03:45;;;;;;;3.28;2.85;;;;;;;7.67;41.12;101087.28;5017691;28;20068;-67
2021/03/24 04:06:22;;;;;;;3.38;2.45;;;;;;;7.58;41.73;101090.09;5025605;28;20509;-67
2021/03/24 04:08:51;;;;;;;6.25;3.53;;;;;;;7.67;41.44;101087.28;5024406;28;20154;-67
2021/03/24 04:11:21;;;;;;;3.72;2.90;;;;;;;7.55;41.24;101090.16;5018787;28;20120;-67
2021/03/24 04:13:53;;;;;;;5.00;3.03;;;;;;;7.54;41.69;101091.06;5015983;28;20129;-67
2021/03/24 04:16:19;;;;;;;4.70;3.22;;;;;;;7.49;42.08;101092.91;5014239;28;20136;-67
2021/03/24 04:18:52;;;;;;;5.68;3.20;;;;;;;7.46;42.25;101095.59;5019178;28;20104;-67
2021/03/24 04:21:22;;;;;;;3.00;2.60;;;;;;;7.43;42.45;101093.06;5022241;28;20061;-67
2021/03/24 04:23:56;;;;;;;6.40;3.25;;;;;;;7.50;42.36;101095.44;5021576;28;20142;-66
2021/03/24 04:26:27;;;;;;;4.15;3.10;;;;;;;7.48;42.13;101098.97;5024271;28;20133;-66
2021/03/24 04:29:02;;;;;;;3.25;2.60;;;;;;;7.57;41.82;101097.03;5021529;28;20435;-66
2021/03/24 04:31:31;;;;;;;5.93;3.80;;;;;;;7.75;41.06;101100.91;5021999;28;20044;-66
2021/03/24 04:33:58;;;;;;;5.75;3.08;;;;;;;7.51;41.97;101101.47;5018200;28;20065;-66
2021/03/24 04:36:38;;;;;;;7.10;3.35;;;;;;;7.53;41.83;101102.31;5020331;28;20045;-66
2021/03/24 04:39:31;;;;;;;6.07;3.63;;;;;;;7.50;42.19;101110.16;5019465;28;20095;-66
2021/03/24 04:42:00;;;;;;;5.00;2.83;;;;;;;7.43;43.22;101111.22;5022345;28;20044;-66
2021/03/24 04:44:29;;;;;;;6.53;3.30;;;;;;;7.42;43.04;101112.09;5022872;28;20449;-67
2021/03/24 04:47:04;;;;;;;3.05;2.75;;;;;;;7.24;43.74;101108.16;5015726;28;20073;-66
2021/03/24 04:49:36;;;;;;;3.72;2.95;;;;;;;7.32;43.19;101108.84;5017811;28;20077;-66
2021/03/24 04:52:05;;;;;;;10.60;3.45;;;;;;;7.29;42.97;101108.91;5020724;28;20046;-66
2021/03/24 04:54:35;;;;;;;7.90;4.10;;;;;;;7.22;43.21;101116.00;5021779;28;20041;-66
2021/03/24 04:57:06;;;;;;;5.43;3.35;;;;;;;7.25;43.79;101109.91;5024398;28;20037;-66
2021/03/24 04:59:37;;;;;;;4.75;3.28;;;;;;;7.12;44.30;101114.47;5016217;28;20057;-67
2021/03/24 05:02:15;;;;;;;5.97;5.15;;;;;;;7.06;43.87;101118.06;5016176;28;20042;-67
2021/03/24 05:05:02;;;;;;;5.10;4.18;;;;;;;6.90;45.07;101123.59;5019787;28;20046;-67
2021/03/24 05:07:53;;;;;;;5.70;3.72;;;;;;;7.24;43.65;101132.34;5019077;28;20069;-66
2021/03/24 05:10:28;;;;;;;3.78;3.17;;;;;;;7.00;42.64;101132.91;5021055;28;20069;-66
2021/03/24 05:13:08;;;;;;;6.88;3.90;;;;;;;6.83;42.61;101138.44;5020531;28;20045;-66
2021/03/24 05:15:38;;;;;;;7.80;3.97;;;;;;;7.08;41.61;101136.16;5024997;28;20060;-66
2021/03/24 05:18:05;;;;;;;9.15;3.20;;;;;;;6.82;42.15;101132.41;5016055;28;20389;-67
2021/03/24 05:20:40;;;;;;;6.32;3.17;;;;;;;6.72;42.47;101141.25;5018193;28;20041;-66
2021/03/24 05:23:14;;;;;;;6.78;3.22;;;;;;;6.57;42.41;101146.72;5019330;28;20133;-66
2021/03/24 05:26:13;;;;;;;4.88;3.50;;;;;;;6.60;42.31;101154.41;5022784;28;20046;-67
2021/03/24 05:28:42;;;;;;;6.32;3.38;;;;;;;6.60;42.43;101161.34;5028879;28;20128;-67
2021/03/24 05:31:22;;;;;;;5.00;3.58;;;;;;;6.72;42.16;101161.13;5038800;28;20533;-67
2021/03/24 05:33:58;;;;;;;20.02;4.97;;;;;;;6.78;41.59;101172.22;5034489;28;20056;-67
2021/03/24 05:36:33;;;;;;;8.27;3.00;;;;;;;7.02;41.39;101165.66;5034408;28;20060;-67
2021/03/24 05:39:18;;;;;;;13.23;3.40;;;;;;;7.08;41.02;101177.66;5034808;28;20124;-67
2021/03/24 05:41:51;;;;;;;4.90;3.05;;;;;;;6.87;41.60;101172.91;5027666;28;20072;-67
2021/03/24 05:44:42;;;;;;;3.65;3.30;;;;;;;7.17;41.49;101180.06;5034587;28;20065;-67
2021/03/24 05:47:17;;;;;;;6.32;5.68;;;;;;;7.61;40.92;101186.00;5034354;28;20480;-67
2021/03/24 05:49:47;;;;;;;7.57;4.78;;;;;;;7.73;40.61;101183.16;5032711;28;20049;-66
2021/03/24 05:52:32;;;;;;;5.85;4.72;;;;;;;7.55;40.85;101196.53;5034227;28;20049;-67
2021/03/24 05:55:24;;;;;;;5.45;3.90;;;;;;;8.29;39.63;101191.28;5028576;28;20041;-67
2021/03/24 05:58:24;;;;;;;6.93;3.65;;;;;;;8.54;39.17;101191.53;5034306;28;20072;-67
2021/03/24 06:01:21;;;;;;;5.97;3.90;;;;;;;9.16;38.28;101193.28;5030199;28;20049;-67
2021/03/24 06:04:06;;;;;;;5.85;3.67;;;;;;;9.35;37.91;101191.84;5031281;28;20061;-67
2021/03/24 06:06:47;;;;;;;4.95;3.60;;;;;;;9.59;37.89;101179.00;5033773;28;20491;-67
2021/03/24 06:09:29;;;;;;;7.03;3.63;;;;;;;9.81;37.56;101185.25;5033676;28;20053;-67
2021/03/24 06:12:41;;;;;;;7.05;3.53;;;;;;;10.16;37.06;101183.22;5032605;28;20381;-67
2021/03/24 06:15:19;;;;;;;8.10;4.38;;;;;;;10.52;36.15;101181.16;5001887;28;20380;-67
2021/03/24 06:17:54;;;;;;;5.93;4.13;;;;;;;10.96;36.00;101184.78;5033088;28;20088;-68
2021/03/24 06:20:36;;;;;;;10.27;3.65;;;;;;;11.08;35.30;101187.84;5028455;28;20096;-67
2021/03/24 06:23:36;;;;;;;7.43;3.55;;;;;;;11.57;34.86;101191.22;5033657;28;20506;-67
2021/03/24 06:26:30;;;;;;;7.07;3.60;;;;;;;11.98;33.60;101193.03;5026770;28;20117;-65
2021/03/24 06:29:24;;;;;;;10.18;4.25;;;;;;;12.40;33.46;101189.56;5027077;28;20364;-65
2021/03/24 06:32:01;;;;;;;19.67;5.78;;;;;;;12.70;32.82;101189.16;5037963;28;20044;-62
2021/03/24 06:35:05;;;;;;;11.60;6.03;;;;;;;12.97;31.64;101190.56;5031463;28;20712;-63
2021/03/24 06:37:51;;;;;;;13.77;4.82;;;;;;;13.41;31.24;101190.31;5033194;28;20553;-66
2021/03/24 06:40:39;;;;;;;8.63;5.28;;;;;;;13.60;31.24;101185.91;5030568;28;20049;-64
2021/03/24 06:43:17;;;;;;;12.48;6.05;;;;;;;14.22;30.47;101188.16;5033419;28;20119;-62
2021/03/24 06:46:12;;;;;;;14.00;5.60;;;;;;;14.29;30.02;101186.94;5033120;28;20064;-65
2021/03/24 06:49:11;;;;;;;13.85;6.50;;;;;;;14.36;30.30;101191.78;5029643;28;20058;-65
2021/03/24 06:52:04;;;;;;;13.40;6.25;;;;;;;14.90;29.90;101192.50;5032389;28;20488;-65
2021/03/24 06:55:13;;;;;;;15.52;5.50;;;;;;;15.27;29.94;101200.19;5007969;28;20129;-63
2021/03/24 06:57:51;;;;;;;8.75;6.05;;;;;;;15.37;29.83;101199.59;5000021;28;20051;-64
2021/03/24 07:00:43;;;;;;;9.48;6.78;;;;;;;15.18;29.94;101206.81;5019580;28;20076;-64
2021/03/24 07:03:37;;;;;;;11.13;6.45;;;;;;;16.00;29.69;101211.88;5014052;28;20049;-66
2021/03/24 07:06:12;;;;;;;13.77;5.22;;;;;;;16.19;29.59;101207.28;5023286;28;20041;-66
2021/03/24 07:08:48;;;;;;;10.38;6.43;;;;;;;16.70;28.91;101202.47;5029805;28;20500;-66
2021/03/24 07:11:36;;;;;;;11.27;6.68;;;;;;;17.32;27.43;101209.28;5029300;28;20069;-64
2021/03/24 07:14:34;;;;;;;16.25;7.13;;;;;;;17.70;27.34;101210.31;5026306;28;20055;-63
2021/03/24 07:17:19;;;;;;;15.23;7.72;;;;;;;17.80;26.12;101208.81;4993816;28;20073;-60
2021/03/24 07:20:01;;;;;;;8.25;6.55;;;;;;;18.27;25.44;101209.28;5030675;28;20051;-62
2021/03/24 07:23:05;;;;;;;11.35;6.25;;;;;;;18.25;24.40;101206.72;5029610;28;20065;-61
2021/03/24 07:25:43;;;;;;;11.38;7.20;;;;;;;17.42;24.88;101219.16;4985411;28;20037;-62
2021/03/24 07:28:37;;;;;;;7.30;5.55;;;;;;;17.29;24.80;101226.13;5022701;28;20046;-62
2021/03/24 07:31:49;;;;;;;12.27;6.88;;;;;;;17.35;25.28;101219.59;5028860;28;20510;-63
2021/03/24 07:34:22;;;;;;;7.85;5.78;;;;;;;17.82;25.59;101219.25;4999456;28;20042;-62
2021/03/24 07:37:25;;;;;;;17.23;6.38;;;;;;;18.80;24.66;101221.50;5026533;28;20045;-62
2021/03/24 07:40:02;;;;;;;11.60;6.03;;;;;;;19.33;24.07;101214.25;5027003;28;20124;-63
2021/03/24 07:43:07;;;;;;;6.80;5.32;;;;;;;19.23;23.99;101217.63;5028805;28;20037;-62
2021/03/24 07:45:51;;;;;;;7.38;5.30;;;;;;;19.17;24.00;101226.81;5029592;28;20128;-63
2021/03/24 07:48:40;;;;;;;7.13;5.35;;;;;;;19.92;23.62;101218.81;5025795;28;20045;-62
2021/03/24 07:51:29;;;;;;;9.13;5.40;;;;;;;18.30;24.61;101227.53;5018718;28;20041;-62
2021/03/24 07:54:04;;;;;;;7.18;5.97;;;;;;;19.14;24.43;101224.41;5026304;28;20120;-61
2021/03/24 07:56:40;;;;;;;10.25;4.97;;;;;;;19.17;24.33;101226.81;5025679;28;20459;-61
2021/03/24 07:59:21;;;;;;;7.43;5.53;;;;;;;19.34;24.10;101220.38;5025560;28;20041;-61
2021/03/24 08:02:08;;;;;;;9.48;5.68;;;;;;;19.19;24.54;101221.47;5025668;28;20072;-60
2021/03/24 08:04:38;;;;;;;9.40;5.57;;;;;;;20.31;23.88;101225.59;5028819;28;20045;-60
2021/03/24 08:07:10;;;;;;;7.28;5.38;;;;;;;20.30;22.86;101234.50;5023517;28;20038;-58
2021/03/24 08:10:14;;;;;;;7.30;5.10;;;;;;;21.01;22.23;101224.66;5022445;28;20471;-58
2021/03/24 08:13:21;;;;;;;7.88;5.05;;;;;;;20.80;22.44;101227.16;5022114;28;20049;-58
2021/03/24 08:16:13;;;;;;;10.82;5.78;;;;;;;20.55;22.90;101224.72;5019389;28;20041;-58
2021/03/24 08:18:59;;;;;;;5.90;4.60;;;;;;;21.43;21.62;101222.25;5022435;28;20454;-61
2021/03/24 08:21:43;;;;;;;11.05;5.93;;;;;;;21.31;22.16;101226.72;5022621;28;20037;-60
2021/03/24 08:24:28;;;;;;;8.05;6.28;;;;;;;20.77;22.31;101224.75;5026614;28;20052;-60
2021/03/24 08:26:57;;;;;;;9.95;5.32;;;;;;;21.71;21.86;101218.19;5027503;28;20045;-58
2021/03/24 08:29:45;;;;;;;7.00;5.45;;;;;;;21.60;21.64;101221.72;5027263;28;20041;-58
2021/03/24 08:32:37;;;;;;;6.38;5.22;;;;;;;21.58;21.56;101213.06;5025663;28;20065;-58
2021/03/24 08:35:41;;;;;;;8.68;5.25;;;;;;;20.94;21.84;101218.16;5026468;28;20040;-61
2021/03/24 08:38:26;;;;;;;10.10;6.43;;;;;;;19.49;23.72;101221.06;5026418;28;20049;-61
2021/03/24 08:41:00;;;;;;;9.35;5.50;;;;;;;21.77;21.49;101214.19;5029363;28;20069;-61
2021/03/24 08:43:57;;;;;;;8.77;5.95;;;;;;;22.40;20.99;101210.69;5032155;28;20037;-60
2021/03/24 08:46:28;;;;;;;13.15;6.13;;;;;;;21.69;21.20;101220.16;5026920;28;20038;-58
2021/03/24 08:48:58;;;;;;;6.82;6.03;;;;;;;21.37;21.53;101223.59;5027249;28;20431;-61
2021/03/24 08:54:53;;;;;;;9.13;5.22;;;;;;;23.19;19.96;101215.47;5028323;28;20038;-62
2021/03/24 08:57:42;;;;;;;9.30;5.63;;;;;;;23.21;20.19;101217.00;5030048;28;20132;-61
2021/03/24 09:00:30;;;;;;;12.13;7.38;;;;;;;23.50;19.77;101219.75;5028348;28;20575;-61
2021/03/24 09:03:42;;;;;;;10.07;6.97;;;;;;;22.06;20.70;101219.78;5029170;28;20076;-61
2021/03/24 09:06:23;;;;;;;8.50;6.65;;;;;;;20.72;22.31;101223.41;5025832;28;20128;-61
2021/03/24 09:08:49;;;;;;;12.55;7.40;;;;;;;20.60;22.64;101215.44;5030673;28;20107;-62
2021/03/24 09:11:45;;;;;;;10.73;8.00;;;;;;;21.78;21.81;101211.41;5029489;28;20046;-62
2021/03/24 09:14:46;;;;;;;10.70;6.88;;;;;;;21.45;21.57;101213.19;5014708;28;20038;-64
2021/03/24 09:17:25;;;;;;;14.20;8.60;;;;;;;20.49;22.70;101218.06;5027201;28;20049;-64
2021/03/24 09:20:10;;;;;;;8.07;7.00;;;;;;;20.72;22.79;101213.69;5029032;28;20553;-64
2021/03/24 09:23:14;;;;;;;9.60;7.50;;;;;;;19.44;24.34;101218.75;5031584;28;20586;-64
2021/03/24 09:25:43;;;;;;;9.30;8.27;;;;;;;18.47;25.35;101215.81;4990629;28;20121;-64
2021/03/24 09:28:28;;;;;;;9.65;8.18;;;;;;;17.97;26.32;101217.41;5029261;28;20128;-64
2021/03/24 09:31:26;;;;;;;11.80;8.13;;;;;;;18.11;26.35;101214.72;5027245;28;20059;-64
2021/03/24 09:33:59;;;;;;;11.43;9.10;;;;;;;17.84;26.48;101212.06;5015752;28;20392;-64
2021/03/24 09:36:47;;;;;;;18.27;8.85;;;;;;;17.43;27.07;101225.25;5021336;28;20046;-63
2021/03/24 09:39:20;;;;;;;18.95;9.43;;;;;;;17.69;26.77;101218.31;5019484;28;20048;-64
2021/03/24 09:41:59;;;;;;;12.68;9.02;;;;;;;17.65;26.48;101222.94;5023409;28;20056;-64
2021/03/24 09:44:34;;;;;;;11.10;8.60;;;;;;;17.58;26.33;101215.50;5020564;28;20049;-64
2021/03/24 09:47:00;;;;;;;;;;;;;;;17.07;27.56;101216.06;5021991;28;20426;-64
2021/03/24 09:49:27;;;;;;;11.82;9.07;;;;;;;17.15;26.79;101213.81;5026997;28;19922;-63
2021/03/24 09:52:11;;;;;;;12.95;9.90;;;;;;;17.11;27.16;101212.31;5027077;28;20048;-63
2021/03/24 09:54:57;;;;;;;11.27;9.32;;;;;;;17.12;26.67;101208.72;5023955;28;20104;-64
2021/03/24 09:57:36;;;;;;;13.57;9.98;;;;;;;17.18;26.92;101212.75;5027809;28;20502;-63
2021/03/24 10:00:11;;;;;;;10.93;9.25;;;;;;;16.60;27.72;101213.66;5025666;28;20061;-63
2021/03/24 10:03:07;;;;;;;13.85;8.73;;;;;;;16.24;28.28;101210.47;5026492;28;20064;-63
2021/03/24 10:05:51;;;;;;;9.68;8.10;;;;;;;16.20;27.59;101206.34;5025582;28;20037;-65
2021/03/24 10:08:25;;;;;;;8.93;8.02;;;;;;;16.46;26.78;101209.22;5026480;28;20076;-64
2021/03/24 10:10:58;;;;;;;17.52;9.52;;;;;;;16.76;26.46;101212.66;5027686;28;20435;-74
2021/03/24 10:13:30;;;;;;;12.20;8.48;;;;;;;16.79;27.50;101203.75;5027337;28;20049;-74
2021/03/24 10:16:03;;;;;;;9.77;8.77;;;;;;;16.43;27.83;101206.75;5029479;28;20546;-74
2021/03/24 10:18:45;;;;;;;10.82;9.73;;;;;;;16.20;28.04;101206.34;5026384;28;20057;-73
2021/03/24 10:21:52;;;;;;;11.18;9.52;;;;;;;16.61;27.92;101208.28;5016846;28;20049;-73
2021/03/24 10:24:34;;;;;;;14.27;10.35;;;;;;;16.32;27.76;101209.19;5026478;28;20358;-73
2021/03/24 10:27:07;;;;;;;12.13;9.93;;;;;;;16.37;28.02;101197.44;5015008;28;20041;-73
2021/03/24 10:30:00;;;;;;;13.00;9.73;;;;;;;16.53;26.40;101192.13;5031269;28;20514;-74
2021/03/24 10:32:38;;;;;;;17.55;10.73;;;;;;;16.50;26.67;101194.91;5025611;28;20037;-74
2021/03/24 10:35:46;;;;;;;13.73;10.27;;;;;;;16.60;26.49;101193.44;5028665;28;20407;-74
2021/03/24 10:38:28;;;;;;;12.80;9.57;;;;;;;16.68;26.44;101190.34;5027755;28;20038;-74
2021/03/24 10:41:29;;;;;;;9.95;8.65;;;;;;;16.61;26.17;101186.38;5028846;28;20056;-72
2021/03/24 10:44:14;;;;;;;11.95;10.75;;;;;;;16.48;26.01;101186.28;5019248;28;20045;-73
2021/03/24 10:47:17;;;;;;;11.93;9.77;;;;;;;16.70;26.33;101184.03;5015276;28;20088;-72
2021/03/24 10:49:47;;;;;;;16.08;10.15;;;;;;;16.82;26.24;101179.00;5023942;28;20046;-73
2021/03/24 10:52:20;;;;;;;12.98;10.23;;;;;;;16.45;26.31;101181.19;5027664;28;20082;-70
2021/03/24 10:54:58;;;;;;;14.60;10.80;;;;;;;16.45;25.58;101179.41;5021648;28;20050;-74
2021/03/24 10:57:29;;;;;;;11.38;10.02;;;;;;;16.29;25.84;101175.97;5028791;28;20080;-70
2021/03/24 11:00:26;;;;;;;27.40;20.48;;;;;;;16.39;27.00;101171.88;5025502;28;20069;-68
2021/03/24 11:03:11;;;;;;;16.20;11.68;;;;;;;16.33;27.58;101172.25;5016501;28;21699;-67
2021/03/24 11:05:45;;;;;;;13.15;11.30;;;;;;;16.35;27.19;101165.13;5018624;28;20503;-70
2021/03/24 11:08:35;;;;;;;16.10;12.55;;;;;;;16.60;26.71;101167.09;5023898;28;20042;-69
2021/03/24 11:11:14;;;;;;;13.05;11.60;;;;;;;16.48;27.66;101159.97;5016814;28;20120;-69
2021/03/24 11:13:50;;;;;;;14.27;11.45;;;;;;;16.48;27.88;101154.69;5023985;28;20489;-71
2021/03/24 11:16:24;;;;;;;14.75;12.70;;;;;;;16.43;27.27;101154.13;5024726;28;20038;-70
2021/03/24 11:18:57;;;;;;;14.85;11.85;;;;;;;16.29;26.65;101154.09;5022734;28;20095;-69
2021/03/24 11:22:01;;;;;;;15.35;12.10;;;;;;;16.07;26.77;101144.00;5029771;28;20131;-69
2021/03/24 11:24:48;;;;;;;15.75;13.85;;;;;;;16.14;27.18;101147.94;5030564;28;20396;-69
2021/03/24 11:27:24;;;;;;;21.10;12.32;;;;;;;16.39;27.27;101144.72;5019214;28;20041;-69
2021/03/24 11:29:51;;;;;;;15.48;12.93;;;;;;;16.58;26.62;101134.78;5025179;28;20049;-71
2021/03/24 11:32:22;;;;;;;14.60;10.98;;;;;;;16.77;27.00;101140.63;5021195;28;20045;-72
2021/03/24 11:35:27;;;;;;;17.60;12.40;;;;;;;16.86;26.61;101130.47;5024559;28;20041;-71
2021/03/24 11:37:59;;;;;;;14.35;12.80;;;;;;;16.48;26.13;101131.00;5022062;28;20052;-72
2021/03/24 11:40:26;;;;;;;16.95;13.98;;;;;;;16.33;26.54;101121.41;5028591;28;20516;-73
2021/03/24 11:43:06;;;;;;;14.60;12.43;;;;;;;16.53;26.32;101118.44;5030198;28;20117;-73
2021/03/24 11:45:37;;;;;;;21.75;18.55;;;;;;;16.35;27.29;101120.41;5029126;28;20064;-72
2021/03/24 11:48:48;;;;;;;21.73;14.77;;;;;;;16.45;26.58;101118.88;5031330;28;20044;-71
2021/03/24 11:51:26;;;;;;;24.10;15.95;;;;;;;16.46;26.67;101111.84;4970633;28;20054;-72
2021/03/24 11:54:10;;;;;;;18.15;12.38;;;;;;;16.57;26.64;101112.03;5026042;28;20069;-71
2021/03/24 11:57:12;;;;;;;17.17;14.43;;;;;;;16.51;26.53;101107.13;5023888;28;20037;-73
2021/03/24 12:00:23;;;;;;;25.10;18.10;;;;;;;16.46;26.28;101106.59;5016119;28;20073;-72
2021/03/24 12:03:10;;;;;;;17.85;15.00;;;;;;;16.64;26.22;101100.19;4942684;28;20205;-72
2021/03/24 12:05:43;;;;;;;20.58;15.60;;;;;;;16.59;26.61;101094.34;4941766;28;20050;-72
2021/03/24 12:08:28;;;;;;;20.98;13.85;;;;;;;16.35;26.62;101093.22;4987219;28;20060;-72
2021/03/24 12:11:24;;;;;;;17.38;13.32;;;;;;;16.43;26.44;101085.72;5020181;28;20046;-72
2021/03/24 12:14:04;;;;;;;27.50;12.50;;;;;;;16.61;26.72;101068.78;5015715;28;20049;-73
2021/03/24 12:16:41;;;;;;;22.80;14.82;;;;;;;16.27;26.85;101084.94;5018855;28;20041;-72
2021/03/24 12:19:31;;;;;;;21.83;15.52;;;;;;;16.15;26.89;101082.13;5018966;28;20148;-71
2021/03/24 12:22:21;;;;;;;19.85;13.30;;;;;;;16.34;26.78;101067.84;5017772;28;20137;-72
2021/03/24 12:24:50;;;;;;;22.65;14.65;;;;;;;16.45;26.89;101068.03;5021790;28;20487;-71